createdAt,value
2023-01-11T00:00:59.385Z,21.63
2023-01-11T00:02:02.611Z,22.08
2023-01-11T00:03:07.199Z,20.77
2023-01-11T00:04:10.465Z,19.90
2023-01-11T00:05:14.232Z,21.38
2023-01-11T00:06:17.443Z,20.02
2023-01-11T00:07:20.569Z,19.40
2023-01-11T00:08:25.329Z,21.27
2023-01-11T00:09:28.668Z,22.90
2023-01-11T00:10:33.350Z,22.48
2023-01-11T00:11:36.477Z,20.90
2023-01-11T00:12:39.666Z,19.60
2023-01-11T00:13:45.405Z,22.98
2023-01-11T00:14:48.676Z,23.98
2023-01-11T00:15:52.030Z,21.38
2023-01-11T00:16:55.223Z,21.60
2023-01-11T00:17:58.512Z,20.48
2023-01-11T00:19:01.820Z,22.70
2023-01-11T00:20:05.895Z,21.63
2023-01-11T00:21:10.847Z,20.77
2023-01-11T00:22:13.991Z,21.45
2023-01-11T00:23:17.121Z,21.35
2023-01-11T00:24:20.295Z,19.20
2023-01-11T00:25:23.689Z,21.40
2023-01-11T00:26:26.982Z,20.23
2023-01-11T00:27:30.145Z,20.92
2023-01-11T00:28:34.099Z,20.77
2023-01-11T00:29:37.346Z,21.17
2023-01-11T00:30:40.487Z,21.48
2023-01-11T00:31:43.676Z,19.52
2023-01-11T00:32:47.033Z,19.50
2023-01-11T00:33:50.361Z,19.98
2023-01-11T00:34:54.308Z,20.08
2023-01-11T00:35:57.533Z,19.58
2023-01-11T00:37:00.666Z,19.73
2023-01-11T00:38:03.851Z,19.08
2023-01-11T00:39:06.992Z,19.92
2023-01-11T00:40:10.799Z,21.08
2023-01-11T00:41:34.391Z,20.95
2023-01-11T00:42:56.248Z,18.65
2023-01-11T00:44:18.040Z,20.63
2023-01-11T00:45:40.056Z,20.58
2023-01-11T00:47:01.940Z,19.20
2023-01-11T00:48:06.076Z,18.63
2023-01-11T00:49:09.139Z,20.05
2023-01-11T00:50:12.302Z,21.80
2023-01-11T00:51:15.705Z,21.00
2023-01-11T00:52:18.858Z,20.30
2023-01-11T00:53:22.283Z,20.45
2023-01-11T00:54:25.562Z,21.15
2023-01-11T00:55:28.939Z,21.00
2023-01-11T00:56:32.087Z,19.60
2023-01-11T00:57:35.335Z,21.55
2023-01-11T00:58:38.483Z,20.65
2023-01-11T00:59:41.756Z,21.88
2023-01-11T01:00:44.961Z,19.42
2023-01-11T01:01:48.169Z,20.40
2023-01-11T01:02:51.982Z,20.42
2023-01-11T01:03:55.099Z,19.95
2023-01-11T01:04:58.164Z,21.27
2023-01-11T01:06:01.408Z,21.55
2023-01-11T01:07:07.367Z,21.73
2023-01-11T01:08:10.446Z,21.80
2023-01-11T01:09:13.551Z,22.40
2023-01-11T01:10:18.416Z,20.38
2023-01-11T01:11:22.156Z,19.77
2023-01-11T01:12:43.887Z,21.15
2023-01-11T01:14:05.494Z,21.08
2023-01-11T01:15:09.390Z,20.55
2023-01-11T01:16:12.616Z,21.70
2023-01-11T01:17:16.057Z,18.23
2023-01-11T01:18:19.367Z,19.38
2023-01-11T01:19:22.958Z,20.60
2023-01-11T01:20:26.627Z,20.48
2023-01-11T01:21:29.891Z,20.15
2023-01-11T01:22:33.266Z,20.00
2023-01-11T01:23:36.586Z,17.58
2023-01-11T01:24:39.778Z,21.73
2023-01-11T01:25:43.061Z,21.13
2023-01-11T01:26:46.233Z,20.52
2023-01-11T01:27:49.393Z,20.77
2023-01-11T01:28:52.503Z,19.88
2023-01-11T01:29:55.571Z,21.05
2023-01-11T01:30:59.013Z,20.13
2023-01-11T01:32:02.361Z,20.95
2023-01-11T01:33:05.535Z,21.42
2023-01-11T01:34:09.310Z,20.17
2023-01-11T01:35:12.443Z,20.40
2023-01-11T01:36:15.609Z,21.42
2023-01-11T01:37:18.870Z,19.33
2023-01-11T01:38:22.053Z,19.60
2023-01-11T01:39:25.116Z,21.23
2023-01-11T01:40:28.417Z,19.45
2023-01-11T01:41:32.057Z,21.55
2023-01-11T01:42:35.101Z,19.95
2023-01-11T01:43:52.470Z,20.35
2023-01-11T01:45:25.756Z,18.67
2023-01-11T01:46:32.379Z,17.15
2023-01-11T01:48:07.016Z,19.88
2023-01-11T01:49:15.761Z,18.50
2023-01-11T01:50:34.850Z,20.15
2023-01-11T01:51:52.545Z,19.00
2023-01-11T01:53:08.613Z,21.40
2023-01-11T01:54:21.598Z,19.25
2023-01-11T01:55:34.824Z,18.48
2023-01-11T01:56:53.681Z,17.80
2023-01-11T01:58:00.147Z,18.10
2023-01-11T01:59:12.804Z,18.50
2023-01-11T02:00:16.732Z,19.05
2023-01-11T02:01:38.531Z,19.55
2023-01-11T02:02:45.168Z,19.02
2023-01-11T02:03:50.141Z,19.35
2023-01-11T02:04:56.402Z,18.65
2023-01-11T02:05:59.666Z,19.27
2023-01-11T02:07:08.412Z,21.98
2023-01-11T02:08:29.634Z,21.38
2023-01-11T02:09:57.187Z,19.63
2023-01-11T02:11:01.163Z,20.92
2023-01-11T02:12:07.854Z,22.10
2023-01-11T02:13:13.285Z,20.17
2023-01-11T02:14:19.992Z,21.88
2023-01-11T02:15:24.719Z,22.73
2023-01-11T02:16:28.148Z,20.83
2023-01-11T02:17:31.241Z,20.15
2023-01-11T02:18:36.724Z,20.35
2023-01-11T02:20:13.649Z,20.58
2023-01-11T02:21:26.203Z,19.27
2023-01-11T02:23:05.672Z,20.80
2023-01-11T02:24:30.457Z,20.88
2023-01-11T02:25:41.847Z,20.10
2023-01-11T02:27:12.923Z,21.05
2023-01-11T02:30:39.154Z,20.83
2023-01-11T02:32:10.871Z,21.42
2023-01-11T02:33:56.992Z,20.17
2023-01-11T02:35:36.591Z,19.75
2023-01-11T02:37:19.670Z,19.27
2023-01-11T02:38:37.426Z,19.23
2023-01-11T02:40:19.941Z,21.17
2023-01-11T02:42:04.154Z,22.20
2023-01-11T02:43:39.414Z,19.23
2023-01-11T02:45:04.093Z,18.23
2023-01-11T02:46:28.862Z,18.52
2023-01-11T02:47:57.823Z,19.05
2023-01-11T02:49:43.062Z,20.38
2023-01-11T02:51:20.129Z,20.60
2023-01-11T02:52:47.692Z,20.45
2023-01-11T02:54:06.192Z,20.73
2023-01-11T02:55:13.436Z,19.20
2023-01-11T02:56:27.721Z,21.85
2023-01-11T02:57:32.912Z,20.25
2023-01-11T02:58:40.642Z,21.13
2023-01-11T02:59:48.884Z,21.02
2023-01-11T03:00:54.605Z,21.10
2023-01-11T03:01:58.274Z,20.92
2023-01-11T03:03:16.145Z,18.90
2023-01-11T03:04:35.790Z,20.25
2023-01-11T03:06:00.841Z,18.88
2023-01-11T03:07:27.601Z,19.02
2023-01-11T03:08:44.738Z,18.98
2023-01-11T03:10:22.228Z,20.90
2023-01-11T03:12:31.643Z,18.23
2023-01-11T03:14:41.642Z,18.13
2023-01-11T03:15:50.214Z,16.85
2023-01-11T03:17:09.460Z,17.52
2023-01-11T03:18:37.697Z,18.38
2023-01-11T03:19:52.523Z,17.52
2023-01-11T03:21:24.663Z,16.52
2023-01-11T03:22:39.619Z,17.48
2023-01-11T03:24:12.282Z,18.25
2023-01-11T03:25:30.976Z,16.20
2023-01-11T03:27:16.382Z,15.55
2023-01-11T03:29:02.016Z,17.27
2023-01-11T03:30:11.422Z,16.08
2023-01-11T03:31:37.681Z,18.50
2023-01-11T03:32:54.618Z,18.48
2023-01-11T03:34:15.561Z,17.05
2023-01-11T03:37:20.642Z,17.05
2023-01-11T03:38:45.853Z,16.77
2023-01-11T03:40:00.592Z,17.15
2023-01-11T03:41:25.680Z,16.63
2023-01-11T03:42:30.697Z,17.50
2023-01-11T03:43:37.735Z,17.08
2023-01-11T03:44:46.545Z,16.27
2023-01-11T03:46:19.587Z,17.65
2023-01-11T03:47:26.175Z,16.13
2023-01-11T03:48:55.733Z,18.95
2023-01-11T03:50:11.438Z,17.23
2023-01-11T03:51:21.181Z,18.90
2023-01-11T03:52:31.843Z,16.42
2023-01-11T03:54:41.357Z,17.05
2023-01-11T03:55:48.236Z,17.60
2023-01-11T03:57:16.320Z,17.65
2023-01-11T03:58:19.744Z,17.92
2023-01-11T03:59:23.347Z,18.15
2023-01-11T04:00:28.604Z,17.25
2023-01-11T04:01:32.096Z,16.85
2023-01-11T04:02:40.941Z,17.92
2023-01-11T04:03:44.077Z,17.88
2023-01-11T04:04:47.498Z,17.83
2023-01-11T04:05:57.998Z,18.08
2023-01-11T04:07:01.186Z,17.23
2023-01-11T04:08:04.714Z,17.20
2023-01-11T04:09:07.865Z,16.73
2023-01-11T04:10:11.909Z,17.95
2023-01-11T04:11:15.076Z,17.50
2023-01-11T04:12:18.243Z,18.27
2023-01-11T04:13:21.482Z,18.38
2023-01-11T04:14:24.582Z,17.58
2023-01-11T04:15:30.226Z,19.55
2023-01-11T04:16:33.482Z,17.58
2023-01-11T04:17:36.603Z,15.35
2023-01-11T04:18:39.716Z,17.17
2023-01-11T04:19:42.979Z,18.85
2023-01-11T04:20:47.096Z,17.52
2023-01-11T04:21:50.227Z,15.68
2023-01-11T04:22:53.474Z,17.75
2023-01-11T04:23:56.694Z,16.58
2023-01-11T04:24:59.975Z,18.23
2023-01-11T04:26:03.129Z,16.27
2023-01-11T04:27:06.239Z,17.10
2023-01-11T04:28:09.398Z,16.98
2023-01-11T04:29:12.729Z,17.92
2023-01-11T04:30:16.101Z,16.95
2023-01-11T04:31:19.204Z,16.58
2023-01-11T04:32:23.194Z,17.52
2023-01-11T04:33:26.378Z,15.07
2023-01-11T04:34:29.544Z,15.13
2023-01-11T04:35:32.768Z,14.30
2023-01-11T04:36:35.911Z,18.02
2023-01-11T04:37:39.173Z,15.18
2023-01-11T04:38:42.391Z,16.60
2023-01-11T04:39:45.424Z,16.13
2023-01-11T04:40:48.839Z,16.80
2023-01-11T04:42:10.570Z,17.30
2023-01-11T04:43:13.666Z,16.40
2023-01-11T04:44:16.804Z,17.33
2023-01-11T04:45:20.387Z,17.63
2023-01-11T04:46:24.842Z,18.77
2023-01-11T04:47:28.146Z,18.52
2023-01-11T04:48:31.299Z,16.45
2023-01-11T04:49:34.471Z,19.40
2023-01-11T04:50:37.703Z,16.88
2023-01-11T04:51:41.126Z,17.90
2023-01-11T04:52:44.414Z,18.70
2023-01-11T04:53:51.469Z,18.23
2023-01-11T04:54:54.726Z,17.20
2023-01-11T04:56:01.834Z,17.17
2023-01-11T04:57:06.152Z,19.13
2023-01-11T04:58:09.473Z,16.77
2023-01-11T04:59:13.897Z,17.63
2023-01-11T05:00:17.644Z,17.52
2023-01-11T05:01:20.955Z,16.92
2023-01-11T05:02:24.136Z,18.90
2023-01-11T05:03:27.581Z,16.88
2023-01-11T05:04:30.799Z,17.50
2023-01-11T05:05:34.134Z,20.00
2023-01-11T05:06:37.296Z,18.00
2023-01-11T05:07:41.069Z,17.30
2023-01-11T05:08:48.201Z,17.10
2023-01-11T05:09:51.320Z,16.73
2023-01-11T05:10:56.753Z,17.88
2023-01-11T05:12:00.012Z,16.70
2023-01-11T05:13:03.183Z,17.45
2023-01-11T05:14:06.343Z,20.15
2023-01-11T05:15:10.142Z,16.40
2023-01-11T05:16:25.526Z,17.30
2023-01-11T05:17:28.692Z,17.77
2023-01-11T05:18:31.771Z,17.73
2023-01-11T05:19:34.869Z,16.50
2023-01-11T05:20:38.155Z,18.08
2023-01-11T05:21:42.664Z,17.88
2023-01-11T05:22:45.815Z,16.48
2023-01-11T05:23:49.176Z,19.20
2023-01-11T05:24:52.359Z,17.30
2023-01-11T05:25:55.486Z,17.48
2023-01-11T05:26:58.855Z,17.15
2023-01-11T05:28:02.009Z,17.25
2023-01-11T05:29:08.843Z,18.50
2023-01-11T05:30:12.488Z,18.55
2023-01-11T05:31:16.276Z,17.55
2023-01-11T05:32:20.029Z,17.63
2023-01-11T05:33:23.179Z,18.02
2023-01-11T05:34:26.395Z,18.45
2023-01-11T05:35:29.539Z,17.88
2023-01-11T05:36:33.923Z,17.42
2023-01-11T05:37:38.358Z,18.73
2023-01-11T05:38:41.900Z,19.08
2023-01-11T05:39:45.076Z,18.83
2023-01-11T05:40:58.846Z,18.92
2023-01-11T05:42:02.002Z,16.17
2023-01-11T05:43:05.700Z,16.85
2023-01-11T05:44:31.703Z,18.88
2023-01-11T05:45:37.654Z,18.05
2023-01-11T05:46:43.295Z,18.20
2023-01-11T05:47:46.426Z,17.10
2023-01-11T05:48:49.892Z,18.13
2023-01-11T05:49:52.937Z,18.58
2023-01-11T05:50:56.735Z,15.65
2023-01-11T05:51:59.826Z,18.63
2023-01-11T05:53:03.213Z,17.52
2023-01-11T05:54:10.342Z,17.00
2023-01-11T05:55:13.544Z,16.63
2023-01-11T05:56:16.675Z,18.15
2023-01-11T05:57:19.832Z,19.77
2023-01-11T05:58:25.514Z,19.17
2023-01-11T05:59:31.853Z,19.48
2023-01-11T06:00:35.284Z,18.35
2023-01-11T06:01:39.010Z,16.67
2023-01-11T06:02:42.225Z,17.02
2023-01-11T06:03:46.513Z,16.05
2023-01-11T06:04:49.586Z,16.80
2023-01-11T06:05:53.887Z,17.05
2023-01-11T06:06:56.989Z,17.83
2023-01-11T06:08:00.138Z,17.25
2023-01-11T06:09:03.460Z,17.63
2023-01-11T06:10:07.460Z,18.13
2023-01-11T06:11:10.838Z,17.60
2023-01-11T06:12:14.005Z,18.48
2023-01-11T06:13:29.761Z,17.38
2023-01-11T06:14:33.351Z,19.45
2023-01-11T06:15:36.513Z,18.25
2023-01-11T06:16:39.807Z,17.95
2023-01-11T06:17:43.219Z,19.30
2023-01-11T06:18:50.242Z,16.45
2023-01-11T06:19:53.451Z,15.98
2023-01-11T06:20:57.168Z,18.00
2023-01-11T06:22:00.355Z,17.08
2023-01-11T06:23:03.676Z,18.15
2023-01-11T06:24:07.255Z,18.50
2023-01-11T06:25:10.465Z,18.58
2023-01-11T06:26:16.706Z,17.13
2023-01-11T06:27:19.847Z,17.50
2023-01-11T06:28:23.524Z,18.20
2023-01-11T06:29:26.718Z,17.67
2023-01-11T06:30:29.863Z,17.42
2023-01-11T06:31:33.066Z,19.45
2023-01-11T06:32:36.215Z,16.85
2023-01-11T06:33:39.752Z,18.25
2023-01-11T06:34:42.919Z,18.20
2023-01-11T06:35:46.396Z,18.73
2023-01-11T06:36:49.906Z,18.33
2023-01-11T06:37:53.061Z,15.93
2023-01-11T06:38:56.173Z,16.88
2023-01-11T06:39:59.388Z,18.98
2023-01-11T06:41:06.142Z,17.55
2023-01-11T06:42:09.377Z,18.50
2023-01-11T06:43:12.555Z,17.85
2023-01-11T06:44:15.659Z,17.25
2023-01-11T06:45:18.756Z,18.25
2023-01-11T06:46:22.242Z,16.20
2023-01-11T06:47:25.405Z,17.85
2023-01-11T06:48:28.613Z,16.75
2023-01-11T06:49:31.957Z,14.90
2023-01-11T06:50:35.246Z,17.00
2023-01-11T06:51:38.343Z,16.27
2023-01-11T06:52:41.563Z,17.05
2023-01-11T06:53:46.450Z,15.77
2023-01-11T06:54:49.632Z,15.68
2023-01-11T06:55:55.238Z,16.13
2023-01-11T06:56:58.359Z,15.35
2023-01-11T06:58:01.653Z,15.48
2023-01-11T06:59:04.861Z,14.80
2023-01-11T07:00:09.328Z,14.85
2023-01-11T07:01:12.725Z,16.42
2023-01-11T07:02:16.049Z,15.52
2023-01-11T07:03:20.758Z,15.57
2023-01-11T07:04:23.901Z,15.70
2023-01-11T07:05:27.111Z,16.08
2023-01-11T07:06:32.164Z,14.70
2023-01-11T07:07:35.373Z,15.32
2023-01-11T07:08:38.546Z,14.40
2023-01-11T07:09:41.725Z,14.85
2023-01-11T07:10:45.824Z,14.90
2023-01-11T07:11:48.997Z,14.38
2023-01-11T07:12:53.435Z,13.40
2023-01-11T07:13:56.501Z,16.58
2023-01-11T07:14:59.996Z,13.55
2023-01-11T07:16:03.253Z,16.83
2023-01-11T07:17:06.500Z,14.35
2023-01-11T07:18:10.225Z,13.18
2023-01-11T07:19:13.819Z,15.55
2023-01-11T07:20:17.339Z,14.38
2023-01-11T07:21:20.595Z,14.68
2023-01-11T07:22:24.149Z,14.15
2023-01-11T07:23:27.343Z,15.63
2023-01-11T07:24:30.441Z,14.80
2023-01-11T07:25:34.685Z,14.68
2023-01-11T07:26:41.386Z,14.10
2023-01-11T07:27:44.796Z,14.60
2023-01-11T07:28:47.984Z,13.85
2023-01-11T07:29:53.409Z,14.45
2023-01-11T07:30:59.363Z,14.75
2023-01-11T07:32:04.823Z,15.70
2023-01-11T07:33:10.355Z,15.55
2023-01-11T07:34:14.081Z,16.38
2023-01-11T07:35:17.329Z,15.65
2023-01-11T07:36:20.435Z,13.32
2023-01-11T07:37:29.576Z,15.65
2023-01-11T07:38:33.064Z,14.35
2023-01-11T07:39:43.303Z,16.00
2023-01-11T07:40:46.989Z,14.10
2023-01-11T07:42:08.323Z,14.02
2023-01-11T07:43:18.237Z,13.93
2023-01-11T07:44:21.616Z,14.15
2023-01-11T07:45:29.211Z,15.32
2023-01-11T07:46:40.578Z,12.82
2023-01-11T07:47:43.720Z,14.75
2023-01-11T07:48:47.141Z,13.48
2023-01-11T07:49:50.397Z,13.80
2023-01-11T07:50:54.181Z,12.85
2023-01-11T07:51:57.587Z,13.43
2023-01-11T07:53:00.839Z,12.38
2023-01-11T07:54:04.271Z,14.00
2023-01-11T07:55:07.984Z,12.07
2023-01-11T07:56:11.056Z,13.43
2023-01-11T07:57:14.221Z,11.15
2023-01-11T07:58:17.290Z,10.95
2023-01-11T07:59:20.467Z,13.10
2023-01-11T08:00:25.141Z,12.57
2023-01-11T08:01:29.030Z,11.82
2023-01-11T08:02:32.322Z,11.80
2023-01-11T08:03:35.649Z,13.65
2023-01-11T08:04:38.736Z,12.93
2023-01-11T08:05:41.894Z,11.50
2023-01-11T08:06:44.955Z,12.02
2023-01-11T08:07:48.557Z,13.60
2023-01-11T08:08:51.765Z,12.73
2023-01-11T08:09:54.809Z,12.77
2023-01-11T08:11:16.442Z,11.25
2023-01-11T08:12:38.244Z,11.20
2023-01-11T08:13:59.732Z,12.27
2023-01-11T08:15:03.211Z,11.45
2023-01-11T08:16:06.667Z,12.45
2023-01-11T08:17:14.883Z,11.45
2023-01-11T08:18:19.563Z,11.30
2023-01-11T08:19:22.693Z,11.60
2023-01-11T08:20:27.234Z,11.18
2023-01-11T08:21:30.561Z,11.93
2023-01-11T08:22:34.148Z,10.70
2023-01-11T08:23:37.676Z,11.05
2023-01-11T08:24:40.958Z,10.32
2023-01-11T08:25:44.243Z,10.60
2023-01-11T08:26:47.765Z,11.32
2023-01-11T08:27:50.944Z,10.77
2023-01-11T08:28:55.587Z,10.25
2023-01-11T08:29:58.700Z,9.23
2023-01-11T08:31:08.862Z,11.00
2023-01-11T08:32:13.256Z,10.27
2023-01-11T08:33:16.402Z,11.35
2023-01-11T08:34:19.591Z,10.38
2023-01-11T08:35:23.881Z,10.90
2023-01-11T08:36:27.611Z,10.52
2023-01-11T08:37:30.862Z,10.43
2023-01-11T08:38:34.411Z,10.63
2023-01-11T08:39:37.611Z,10.68
2023-01-11T08:40:40.873Z,10.85
2023-01-11T08:41:45.264Z,10.88
2023-01-11T08:42:48.454Z,10.85
2023-01-11T08:43:52.060Z,11.45
2023-01-11T08:44:55.609Z,10.75
2023-01-11T08:45:58.839Z,10.90
2023-01-11T08:47:03.700Z,11.13
2023-01-11T08:48:07.059Z,10.60
2023-01-11T08:49:12.362Z,11.77
2023-01-11T08:50:17.359Z,11.38
2023-01-11T08:51:22.116Z,10.80
2023-01-11T08:52:25.303Z,10.40
2023-01-11T08:53:28.756Z,10.52
2023-01-11T08:54:32.045Z,11.07
2023-01-11T08:55:35.173Z,12.07
2023-01-11T08:56:38.880Z,10.23
2023-01-11T08:57:41.997Z,11.55
2023-01-11T08:58:45.101Z,10.98
2023-01-11T08:59:48.176Z,11.10
2023-01-11T09:00:51.772Z,10.23
2023-01-11T09:01:54.910Z,9.63
2023-01-11T09:03:02.749Z,10.45
2023-01-11T09:04:15.789Z,10.05
2023-01-11T09:05:26.478Z,9.60
2023-01-11T09:06:29.669Z,10.38
2023-01-11T09:07:32.880Z,10.07
2023-01-11T09:08:36.049Z,9.77
2023-01-11T09:09:39.247Z,10.07
2023-01-11T09:10:42.291Z,10.32
2023-01-11T09:11:54.643Z,10.98
2023-01-11T09:12:58.384Z,9.90
2023-01-11T09:14:01.845Z,10.15
2023-01-11T09:15:06.216Z,9.40
2023-01-11T09:16:09.502Z,10.45
2023-01-11T09:17:12.710Z,10.45
2023-01-11T09:18:16.044Z,9.88
2023-01-11T09:19:19.263Z,10.07
2023-01-11T09:20:22.892Z,10.98
2023-01-11T09:21:26.107Z,11.48
2023-01-11T09:22:29.335Z,9.65
2023-01-11T09:23:32.511Z,12.00
2023-01-11T09:24:35.901Z,10.45
2023-01-11T09:25:38.968Z,10.65
2023-01-11T09:26:43.605Z,10.88
2023-01-11T09:27:51.694Z,11.80
2023-01-11T09:28:54.999Z,10.20
2023-01-11T09:29:58.396Z,12.98
2023-01-11T09:31:01.576Z,11.68
2023-01-11T09:32:05.361Z,10.57
2023-01-11T09:33:08.554Z,10.80
2023-01-11T09:34:12.831Z,11.82
2023-01-11T09:35:16.936Z,12.15
2023-01-11T09:36:21.858Z,11.18
2023-01-11T09:37:24.982Z,10.85
2023-01-11T09:38:30.787Z,11.27
2023-01-11T09:39:35.231Z,11.65
2023-01-11T09:41:05.555Z,10.10
2023-01-11T09:42:39.577Z,11.73
2023-01-11T09:44:06.421Z,10.90
2023-01-11T09:45:23.066Z,11.52
2023-01-11T09:46:28.963Z,10.88
2023-01-11T09:47:44.880Z,12.43
2023-01-11T09:48:58.808Z,11.40
2023-01-11T09:50:10.535Z,12.30
2023-01-11T09:51:16.483Z,10.65
2023-01-11T09:52:29.301Z,12.45
2023-01-11T09:53:37.659Z,11.07
2023-01-11T09:54:41.157Z,11.40
2023-01-11T09:55:50.435Z,12.25
2023-01-11T09:57:32.701Z,12.65
2023-01-11T09:58:50.944Z,11.30
2023-01-11T10:00:41.405Z,11.45
2023-01-11T10:02:16.872Z,10.80
2023-01-11T10:04:00.107Z,11.52
2023-01-11T10:05:23.603Z,10.73
2023-01-11T10:06:45.105Z,10.43
2023-01-11T10:18:34.071Z,11.45
2023-01-11T10:18:40.560Z,11.40
2023-01-11T10:20:41.036Z,11.57
2023-01-11T10:22:00.534Z,12.38
2023-01-11T10:23:28.164Z,11.88
2023-01-11T10:24:42.374Z,11.82
2023-01-11T10:25:51.654Z,11.35
2023-01-11T10:26:59.571Z,11.10
2023-01-11T10:28:20.101Z,11.82
2023-01-11T10:29:48.244Z,10.32
2023-01-11T10:30:58.613Z,11.45
2023-01-11T10:32:05.721Z,11.73
2023-01-11T10:34:12.454Z,11.15
2023-01-11T10:35:48.035Z,11.52
2023-01-11T10:37:23.942Z,12.38
2023-01-11T10:39:03.418Z,10.82
2023-01-11T10:41:28.569Z,12.35
2023-01-11T10:42:44.342Z,11.80
2023-01-11T10:44:05.248Z,11.32
2023-01-11T10:46:27.313Z,10.98
2023-01-11T10:47:48.489Z,10.20
2023-01-11T10:49:15.738Z,11.65
2023-01-11T10:50:51.940Z,10.65
2023-01-11T10:52:05.072Z,10.80
2023-01-11T10:53:25.119Z,12.02
2023-01-11T10:54:35.726Z,9.85
2023-01-11T10:56:05.138Z,10.73
2023-01-11T10:57:26.823Z,10.90
2023-01-11T10:59:07.534Z,10.77
2023-01-11T11:00:19.396Z,10.88
2023-01-11T11:02:09.945Z,10.70
2023-01-11T11:03:55.297Z,10.13
2023-01-11T11:05:25.838Z,10.80
2023-01-11T11:06:57.551Z,10.20
2023-01-11T11:08:26.509Z,12.00
2023-01-11T11:10:03.423Z,10.80
2023-01-11T11:11:22.451Z,12.77
2023-01-11T11:12:36.757Z,11.80
2023-01-11T11:14:10.479Z,10.55
2023-01-11T11:15:34.052Z,10.45
2023-01-11T11:16:54.578Z,9.57
2023-01-11T11:17:57.679Z,9.93
2023-01-11T11:19:00.893Z,11.93
2023-01-11T11:20:25.754Z,10.88
2023-01-11T11:21:37.263Z,10.10
2023-01-11T11:22:40.679Z,10.85
2023-01-11T11:23:44.578Z,10.65
2023-01-11T11:25:07.709Z,10.13
2023-01-11T11:26:11.440Z,11.27
2023-01-11T11:27:33.232Z,10.75
2023-01-11T11:28:36.824Z,11.48
2023-01-11T11:29:49.271Z,10.43
2023-01-11T11:30:58.581Z,11.15
2023-01-11T11:32:02.056Z,10.43
2023-01-11T11:33:27.002Z,10.88
2023-01-11T11:34:31.007Z,8.25
2023-01-11T11:35:41.429Z,12.45
2023-01-11T11:36:50.382Z,10.07
2023-01-11T11:37:55.239Z,10.10
2023-01-11T11:39:09.388Z,10.55
2023-01-11T11:40:36.650Z,9.80
2023-01-11T11:41:52.334Z,9.88
2023-01-11T11:43:19.800Z,9.38
2023-01-11T11:44:27.608Z,10.95
2023-01-11T11:45:30.741Z,9.40
2023-01-11T11:46:33.991Z,10.25
2023-01-11T11:47:38.266Z,10.13
2023-01-11T11:48:43.551Z,9.93
2023-01-11T11:49:47.611Z,10.20
2023-01-11T11:50:52.678Z,9.50
2023-01-11T11:51:58.381Z,10.18
2023-01-11T11:53:05.648Z,10.10
2023-01-11T11:54:24.680Z,9.95
2023-01-11T11:55:31.930Z,10.52
2023-01-11T11:56:41.386Z,10.73
2023-01-11T11:57:44.776Z,10.23
2023-01-11T11:58:48.452Z,10.38
2023-01-11T12:00:09.350Z,10.43
2023-01-11T12:02:41.855Z,9.55
2023-01-11T12:03:45.117Z,9.52
2023-01-11T12:04:49.669Z,9.98
2023-01-11T12:06:03.784Z,11.15
2023-01-11T12:07:24.215Z,9.23
2023-01-11T12:08:30.004Z,10.10
2023-01-11T12:09:36.066Z,9.60
2023-01-11T12:10:51.306Z,10.70
2023-01-11T12:11:55.064Z,10.02
2023-01-11T12:13:03.692Z,10.82
2023-01-11T12:14:23.419Z,10.25
2023-01-11T12:15:32.132Z,10.02
2023-01-11T12:16:41.365Z,10.15
2023-01-11T12:17:44.698Z,10.18
2023-01-11T12:18:47.903Z,10.18
2023-01-11T12:19:51.140Z,9.45
2023-01-11T12:20:55.401Z,9.70
2023-01-11T12:22:41.281Z,10.45
2023-01-11T12:23:44.863Z,9.75
2023-01-11T12:25:07.704Z,10.23
2023-01-11T12:26:36.964Z,9.50
2023-01-11T12:28:02.554Z,8.20
2023-01-11T12:29:20.284Z,10.40
2023-01-11T12:30:46.525Z,10.40
2023-01-11T12:32:04.155Z,9.43
2023-01-11T12:34:00.937Z,9.70
2023-01-11T12:35:28.347Z,9.10
2023-01-11T12:37:02.789Z,9.57
2023-01-11T12:38:45.853Z,8.85
2023-01-11T12:40:09.902Z,10.27
2023-01-11T12:41:45.358Z,9.77
2023-01-11T12:43:08.863Z,10.35
2023-01-11T12:44:49.612Z,8.90
2023-01-11T12:46:17.238Z,9.05
2023-01-11T12:48:04.292Z,8.15
2023-01-11T12:49:33.174Z,9.77
2023-01-11T12:50:50.879Z,8.32
2023-01-11T12:52:02.531Z,9.38
2023-01-11T12:53:50.242Z,10.02
2023-01-11T12:55:20.822Z,9.57
2023-01-11T12:56:45.322Z,9.45
2023-01-11T12:58:05.094Z,9.48
2023-01-11T12:59:48.544Z,9.95
2023-01-11T13:01:10.065Z,10.10
2023-01-11T13:03:02.412Z,8.88
2023-01-11T13:04:26.193Z,8.73
2023-01-11T13:06:04.868Z,9.93
2023-01-11T13:07:49.307Z,9.00
2023-01-11T13:09:30.677Z,9.73
2023-01-11T13:10:58.436Z,8.18
2023-01-11T13:12:15.377Z,9.93
2023-01-11T13:13:30.231Z,9.18
2023-01-11T13:14:47.572Z,8.63
2023-01-11T13:16:07.844Z,9.10
2023-01-11T13:17:51.918Z,9.90
2023-01-11T13:19:07.652Z,10.20
2023-01-11T13:21:01.279Z,8.95
2023-01-11T13:22:12.996Z,9.07
2023-01-11T13:23:52.446Z,8.75
2023-01-11T13:24:58.172Z,8.10
2023-01-11T13:26:36.184Z,9.35
2023-01-11T13:27:41.346Z,8.48
2023-01-11T13:28:50.396Z,8.80
2023-01-11T13:29:59.494Z,10.05
2023-01-11T13:31:07.529Z,10.23
2023-01-11T13:32:24.827Z,8.98
2023-01-11T13:33:30.976Z,8.65
2023-01-11T13:34:47.282Z,9.95
2023-01-11T13:35:59.409Z,8.57
2023-01-11T13:37:17.828Z,9.02
2023-01-11T13:39:03.759Z,9.07
2023-01-11T13:40:26.475Z,9.07
2023-01-11T13:41:39.412Z,9.95
2023-01-11T13:42:50.797Z,9.55
2023-01-11T13:44:31.122Z,8.90
2023-01-11T13:45:59.662Z,8.70
2023-01-11T13:47:17.193Z,9.90
2023-01-11T13:48:29.799Z,9.27
2023-01-11T13:50:17.625Z,9.00
2023-01-11T13:51:53.249Z,8.32
2023-01-11T13:53:18.705Z,9.63
2023-01-11T13:54:55.515Z,9.85
2023-01-11T13:56:08.574Z,9.02
2023-01-11T13:57:23.558Z,9.57
2023-01-11T13:58:40.926Z,9.18
2023-01-11T13:59:50.351Z,10.05
2023-01-11T14:01:02.648Z,10.25
2023-01-11T14:02:22.244Z,8.90
2023-01-11T14:03:39.249Z,10.43
2023-01-11T14:05:13.051Z,8.88
2023-01-11T14:06:43.403Z,10.05
2023-01-11T14:08:48.145Z,9.27
2023-01-11T14:10:19.717Z,8.60
2023-01-11T14:11:51.665Z,9.20
2023-01-11T14:13:44.159Z,9.50
2023-01-11T14:15:17.036Z,9.95
2023-01-11T14:16:29.568Z,10.93
2023-01-11T14:18:09.233Z,9.52
2023-01-11T14:19:29.969Z,9.50
2023-01-11T14:21:23.482Z,10.23
2023-01-11T14:22:51.343Z,9.90
2023-01-11T14:23:56.168Z,10.35
2023-01-11T14:25:08.811Z,9.90
2023-01-11T14:26:53.727Z,9.68
2023-01-11T14:28:27.317Z,9.88
2023-01-11T14:30:08.117Z,9.55
2023-01-11T14:31:33.709Z,9.45
2023-01-11T14:32:43.500Z,10.40
2023-01-11T14:34:38.415Z,11.57
2023-01-11T14:36:09.978Z,10.65
2023-01-11T14:37:35.242Z,9.75
2023-01-11T14:38:57.070Z,11.75
2023-01-11T14:40:05.990Z,9.85
2023-01-11T14:41:45.970Z,10.45
2023-01-11T14:43:46.049Z,9.68
2023-01-11T14:45:13.476Z,10.48
2023-01-11T14:46:28.535Z,9.75
2023-01-11T14:47:56.449Z,11.98
2023-01-11T14:49:48.188Z,9.85
2023-01-11T14:51:09.250Z,11.48
2023-01-11T14:52:34.448Z,11.13
2023-01-11T14:53:54.331Z,10.30
2023-01-11T14:54:58.500Z,10.50
2023-01-11T14:56:01.684Z,10.57
2023-01-11T14:57:05.071Z,11.98
2023-01-11T14:58:27.659Z,11.35
2023-01-11T14:59:30.701Z,11.20
2023-01-11T15:00:34.340Z,12.65
2023-01-11T15:02:03.844Z,11.40
2023-01-11T15:03:07.278Z,12.05
2023-01-11T15:04:22.556Z,12.73
2023-01-11T15:05:31.495Z,11.05
2023-01-11T15:06:54.773Z,11.95
2023-01-11T15:08:21.059Z,9.88
2023-01-11T15:09:45.193Z,11.35
2023-01-11T15:11:00.283Z,11.55
2023-01-11T15:12:38.251Z,10.07
2023-01-11T15:13:51.529Z,12.27
2023-01-11T15:15:02.671Z,11.57
2023-01-11T15:16:49.366Z,12.43
2023-01-11T15:18:15.779Z,11.48
2023-01-11T15:19:29.140Z,11.88
2023-01-11T15:20:33.728Z,10.63
2023-01-11T15:21:50.369Z,12.52
2023-01-11T15:23:03.674Z,10.55
2023-01-11T15:24:20.566Z,11.88
2023-01-11T15:25:35.014Z,11.95
2023-01-11T15:26:49.292Z,12.30
2023-01-11T15:27:54.179Z,11.30
2023-01-11T15:29:04.985Z,12.40
2023-01-11T15:32:02.060Z,11.90
2023-01-11T15:33:49.097Z,11.75
2023-01-11T15:34:52.543Z,10.82
2023-01-11T15:35:55.581Z,10.25
2023-01-11T15:37:02.293Z,10.50
2023-01-11T15:38:25.280Z,11.25
2023-01-11T15:39:51.376Z,11.43
2023-01-11T15:40:56.853Z,10.68
2023-01-11T15:42:15.261Z,11.65
2023-01-11T15:44:05.441Z,11.65
2023-01-11T15:46:09.841Z,12.23
2023-01-11T15:47:40.665Z,11.02
2023-01-11T15:48:58.364Z,11.80
2023-01-11T15:50:38.475Z,11.65
2023-01-11T15:51:56.291Z,12.23
2023-01-11T15:53:36.300Z,11.35
2023-01-11T15:55:12.987Z,14.75
2023-01-11T15:56:54.055Z,10.93